createdAt,value
2019-03-15T00:03:06.427Z,7.75
2019-03-15T00:08:10.802Z,7.59
2019-03-15T00:13:15.149Z,7.69
2019-03-15T00:18:19.994Z,7.68
2019-03-15T00:23:24.341Z,7.68
2019-03-15T00:28:28.716Z,7.86
2019-03-15T00:33:33.128Z,7.75
2019-03-15T00:38:37.493Z,7.54
2019-03-15T00:43:41.849Z,7.66
2019-03-15T00:48:46.246Z,7.44
2019-03-15T00:53:53.953Z,7.53
2019-03-15T00:58:56.765Z,7.54
2019-03-15T01:04:01.161Z,7.62
2019-03-15T01:09:06.477Z,7.54
2019-03-15T01:14:10.854Z,7.37
2019-03-15T01:19:15.199Z,7.43
2019-03-15T01:24:19.598Z,7.39
2019-03-15T01:29:23.936Z,7.39
2019-03-15T01:34:28.268Z,7.40
2019-03-15T01:39:32.629Z,7.38
2019-03-15T01:44:37.035Z,7.41
2019-03-15T01:49:44.428Z,7.60
2019-03-15T01:54:47.481Z,7.45
2019-03-15T01:59:51.870Z,7.53
2019-03-15T02:04:56.242Z,7.46
2019-03-15T02:10:00.642Z,7.46
2019-03-15T02:15:08.253Z,7.55
2019-03-15T02:20:12.637Z,7.43
2019-03-15T02:25:16.978Z,7.38
2019-03-15T02:30:21.338Z,7.39
2019-03-15T02:35:25.842Z,7.44
2019-03-15T02:40:30.252Z,7.55
2019-03-15T02:45:34.654Z,7.52
2019-03-15T02:50:39.115Z,7.53
2019-03-15T02:55:43.462Z,7.58
2019-03-15T03:00:47.908Z,7.57
2019-03-15T03:05:52.268Z,7.50
2019-03-15T03:10:56.648Z,7.42
2019-03-15T03:16:00.998Z,7.41
2019-03-15T03:21:05.342Z,7.42
2019-03-15T03:26:09.714Z,7.50
2019-03-15T03:31:15.495Z,7.50
2019-03-15T03:36:20.265Z,7.59
2019-03-15T03:41:24.628Z,7.52
2019-03-15T03:46:29.063Z,7.55
2019-03-15T03:51:33.424Z,7.55
2019-03-15T03:56:37.760Z,7.58
2019-03-15T04:01:42.155Z,7.53
2019-03-15T04:06:46.613Z,7.55
2019-03-15T04:11:55.730Z,7.55
2019-03-15T04:16:57.199Z,7.62
2019-03-15T04:22:01.660Z,7.72
2019-03-15T04:27:06.085Z,7.54
2019-03-15T04:32:10.431Z,7.58
2019-03-15T04:37:14.787Z,7.65
2019-03-15T04:42:19.120Z,7.64
2019-03-15T04:47:23.475Z,7.64
2019-03-15T04:52:27.848Z,7.59
2019-03-15T04:57:32.330Z,7.58
2019-03-15T05:02:37.390Z,7.43
2019-03-15T05:07:41.823Z,7.42
2019-03-15T05:12:46.265Z,7.51
2019-03-15T05:17:50.663Z,7.52
2019-03-15T05:22:54.994Z,7.55
2019-03-15T05:27:59.371Z,8.74
2019-03-15T05:33:03.747Z,8.77
2019-03-15T05:38:08.116Z,8.38
2019-03-15T05:43:12.481Z,8.40
2019-03-15T05:48:16.850Z,8.34
2019-03-15T05:53:21.206Z,7.81
2019-03-15T05:58:25.547Z,7.77
2019-03-15T06:03:29.936Z,7.72
2019-03-15T06:08:34.337Z,7.81
2019-03-15T06:13:38.858Z,7.90
2019-03-15T06:18:43.258Z,7.96
2019-03-15T06:23:47.592Z,7.93
2019-03-15T06:28:52.043Z,8.29
2019-03-15T06:33:56.527Z,8.08
2019-03-15T06:39:00.903Z,8.19
2019-03-15T06:44:05.637Z,8.08
2019-03-15T06:49:10.455Z,8.23
2019-03-15T06:54:14.878Z,8.31
2019-03-15T06:59:19.238Z,8.64
2019-03-15T07:04:23.592Z,9.04
2019-03-15T07:09:30.745Z,8.84
2019-03-15T07:14:33.977Z,9.19
2019-03-15T07:19:39.296Z,9.00
2019-03-15T07:24:44.100Z,9.17
2019-03-15T07:29:48.668Z,8.93
2019-03-15T07:34:53.032Z,8.84
2019-03-15T07:39:57.347Z,8.95
2019-03-15T07:45:01.752Z,9.00
2019-03-15T07:50:09.261Z,8.90
2019-03-15T07:55:13.611Z,9.09
2019-03-15T08:00:18.600Z,9.10
2019-03-15T08:05:22.978Z,9.43
2019-03-15T08:10:27.332Z,9.12
2019-03-15T08:15:31.698Z,9.51
2019-03-15T08:20:36.073Z,9.48
2019-03-15T08:25:40.414Z,9.79
2019-03-15T08:30:44.827Z,9.69
2019-03-15T08:35:49.198Z,9.57
2019-03-15T08:40:53.687Z,9.84
2019-03-15T08:45:58.003Z,9.87
2019-03-15T08:51:02.436Z,10.26
2019-03-15T08:56:07.829Z,9.90
2019-03-15T09:01:12.275Z,9.55
2019-03-15T09:06:16.634Z,9.94
2019-03-15T09:11:21.085Z,10.11
2019-03-15T09:16:25.498Z,10.10
2019-03-15T09:21:29.909Z,9.89
2019-03-15T09:26:34.341Z,10.08
2019-03-15T09:31:47.691Z,10.22
2019-03-15T09:36:50.332Z,10.47
2019-03-15T09:41:51.060Z,10.35
2019-03-15T09:46:55.423Z,10.43
2019-03-15T09:51:59.812Z,10.69
2019-03-15T09:57:04.166Z,10.32
2019-03-15T10:02:08.658Z,10.19
2019-03-15T10:07:13.031Z,10.58
2019-03-15T10:12:17.407Z,10.40
2019-03-15T10:17:23.094Z,10.43
2019-03-15T10:22:27.619Z,10.48
2019-03-15T10:27:31.991Z,10.85
2019-03-15T10:32:36.370Z,10.44
2019-03-15T10:37:40.737Z,10.82
2019-03-15T10:42:46.072Z,11.14
2019-03-15T10:47:50.428Z,11.16
2019-03-15T10:52:54.861Z,11.00
2019-03-15T10:57:59.180Z,10.82
2019-03-15T11:03:03.553Z,11.25
2019-03-15T11:08:07.925Z,10.90
2019-03-15T11:13:12.282Z,10.94
2019-03-15T11:18:16.634Z,11.03
2019-03-15T11:23:21.171Z,10.76
2019-03-15T11:28:25.515Z,10.88
2019-03-15T11:33:29.899Z,11.23
2019-03-15T11:38:34.248Z,11.20
2019-03-15T11:43:38.632Z,11.11
2019-03-15T11:48:42.999Z,11.12
2019-03-15T11:53:47.389Z,11.23
2019-03-15T11:58:51.744Z,11.02
2019-03-15T12:03:56.115Z,11.03
2019-03-15T12:09:00.512Z,10.98
2019-03-15T12:14:04.863Z,10.57
2019-03-15T12:19:09.258Z,10.70
2019-03-15T12:24:13.616Z,10.96
2019-03-15T12:29:17.999Z,10.84
2019-03-15T12:34:22.391Z,10.84
2019-03-15T12:39:26.735Z,10.52
2019-03-15T12:44:31.089Z,10.37
2019-03-15T12:49:35.436Z,10.51
2019-03-15T12:54:39.804Z,10.26
2019-03-15T12:59:44.146Z,10.27
2019-03-15T13:04:52.053Z,10.31
2019-03-15T13:09:55.642Z,10.15
2019-03-15T13:14:59.954Z,10.06
2019-03-15T13:20:05.726Z,9.93
2019-03-15T13:25:11.233Z,9.92
2019-03-15T13:30:16.540Z,10.12
2019-03-15T13:35:20.955Z,10.12
2019-03-15T13:40:25.414Z,10.18
2019-03-15T13:45:29.939Z,10.04
2019-03-15T13:50:34.348Z,9.98
2019-03-15T13:55:38.701Z,9.89
2019-03-15T14:00:44.177Z,9.95
2019-03-15T14:05:48.512Z,9.85
2019-03-15T14:10:53.925Z,9.92
2019-03-15T14:16:01.434Z,9.93
2019-03-15T14:21:04.338Z,9.81
2019-03-15T14:26:09.786Z,9.81
2019-03-15T14:31:14.197Z,9.87
2019-03-15T14:36:18.553Z,9.92
2019-03-15T14:41:23.743Z,9.93
2019-03-15T14:46:28.274Z,9.89
2019-03-15T14:51:32.629Z,9.80
2019-03-15T14:56:36.978Z,9.77
2019-03-15T15:01:41.365Z,9.75
2019-03-15T15:06:45.736Z,9.73
2019-03-15T15:11:50.047Z,9.69
2019-03-15T15:16:54.391Z,9.87
2019-03-15T15:21:59.853Z,9.73
2019-03-15T15:27:04.330Z,9.78
2019-03-15T15:32:08.814Z,9.59
2019-03-15T15:37:13.226Z,9.92
2019-03-15T15:42:17.571Z,9.90
2019-03-15T15:47:21.952Z,9.95
2019-03-15T15:52:26.377Z,10.05
2019-03-15T15:57:30.782Z,10.13
2019-03-15T16:02:35.423Z,10.15
2019-03-15T16:07:39.863Z,10.23
2019-03-15T16:12:44.336Z,10.34
2019-03-15T16:17:48.690Z,10.43
2019-03-15T16:22:54.103Z,10.57
2019-03-15T16:27:59.885Z,10.60
2019-03-15T16:33:06.163Z,10.62
2019-03-15T16:38:12.141Z,10.60
2019-03-15T16:43:18.877Z,10.65
2019-03-15T16:48:23.349Z,10.72
2019-03-15T16:53:27.782Z,10.84
2019-03-15T16:58:44.454Z,10.90
2019-03-15T17:03:38.229Z,10.91
2019-03-15T17:08:42.740Z,10.92
2019-03-15T17:13:47.085Z,10.91
2019-03-15T17:18:51.455Z,10.94
2019-03-15T17:23:55.797Z,11.01
2019-03-15T17:29:00.221Z,11.03
2019-03-15T17:34:04.603Z,11.00
2019-03-15T17:39:09.745Z,11.07
2019-03-15T17:44:23.352Z,11.24
2019-03-15T17:49:27.730Z,11.35
2019-03-15T17:54:32.084Z,11.41
2019-03-15T17:59:36.465Z,11.42
2019-03-15T18:04:40.931Z,11.54
2019-03-15T18:09:45.275Z,11.73
2019-03-15T18:14:50.204Z,11.65
2019-03-15T18:19:54.535Z,11.84
2019-03-15T18:24:58.948Z,11.82
2019-03-15T18:30:04.157Z,11.73
2019-03-15T18:35:10.084Z,11.56
2019-03-15T18:40:16.596Z,10.47
2019-03-15T18:45:20.952Z,9.93
2019-03-15T18:50:26.339Z,9.74
2019-03-15T18:55:30.706Z,9.56
2019-03-15T19:00:35.154Z,9.21
2019-03-15T19:05:39.541Z,9.16
2019-03-15T19:10:43.904Z,9.26
2019-03-15T19:15:48.369Z,9.14
2019-03-15T19:20:53.132Z,9.49
2019-03-15T19:25:57.505Z,9.18
2019-03-15T19:31:01.953Z,9.18
2019-03-15T19:36:06.342Z,9.33
2019-03-15T19:41:10.731Z,9.42
2019-03-15T19:46:15.194Z,9.43
2019-03-15T19:51:19.741Z,9.53
2019-03-15T19:56:24.180Z,9.52
2019-03-15T20:01:29.150Z,9.57
2019-03-15T20:06:33.590Z,9.88
2019-03-15T20:11:38.025Z,9.88
2019-03-15T20:16:42.420Z,10.12
2019-03-15T20:21:46.839Z,10.20
2019-03-15T20:26:51.659Z,10.07
2019-03-15T20:31:56.192Z,9.99
2019-03-15T20:37:00.628Z,9.96
2019-03-15T20:42:05.130Z,9.87
2019-03-15T20:47:09.550Z,9.90
2019-03-15T20:52:13.911Z,9.92
2019-03-15T20:57:19.963Z,9.85
2019-03-15T21:02:24.292Z,9.89
2019-03-15T21:07:28.698Z,9.78
2019-03-15T21:12:33.273Z,9.80
2019-03-15T21:17:37.648Z,9.86
2019-03-15T21:22:42.120Z,9.87
2019-03-15T21:27:53.475Z,9.87
2019-03-15T21:32:52.652Z,9.85
2019-03-15T21:37:57.212Z,9.83
2019-03-15T21:43:01.633Z,9.72
2019-03-15T21:48:05.956Z,9.57
2019-03-15T21:53:10.331Z,9.56
2019-03-15T21:58:14.702Z,9.72
2019-03-15T22:03:19.087Z,9.69
2019-03-15T22:08:24.535Z,9.56
2019-03-15T22:13:29.964Z,9.54
2019-03-15T22:18:34.310Z,9.43
2019-03-15T22:23:40.009Z,9.32
2019-03-15T22:28:44.376Z,9.29
2019-03-15T22:33:48.989Z,9.26
2019-03-15T22:38:53.352Z,9.22
2019-03-15T22:43:57.722Z,9.28
2019-03-15T22:49:03.023Z,9.05
2019-03-15T22:54:07.382Z,9.01
2019-03-15T22:59:11.767Z,9.09
2019-03-15T23:04:16.120Z,8.93
2019-03-15T23:09:20.557Z,8.99
2019-03-15T23:14:24.898Z,8.89
2019-03-15T23:19:30.261Z,9.02
2019-03-15T23:24:35.629Z,8.85
2019-03-15T23:29:39.983Z,8.83
2019-03-15T23:34:44.390Z,8.77
2019-03-15T23:39:48.829Z,8.73
2019-03-15T23:44:53.188Z,8.74
2019-03-15T23:49:57.587Z,8.77
2019-03-15T23:55:02.057Z,8.57
